createdAt,value
2017-02-16T00:00:55.084Z,94.1
2017-02-16T00:01:57.054Z,94.1
2017-02-16T00:02:59.518Z,94.1
2017-02-16T00:04:01.987Z,94.1
2017-02-16T00:05:04.958Z,94.1
2017-02-16T00:06:07.432Z,94.1
2017-02-16T00:07:09.747Z,94.1
2017-02-16T00:08:12.225Z,94.2
2017-02-16T00:09:14.684Z,94.1
2017-02-16T00:10:17.166Z,94.2
2017-02-16T00:11:19.627Z,94.2
2017-02-16T00:12:22.097Z,94.2
2017-02-16T00:14:27.300Z,94.2
2017-02-16T00:15:30.103Z,94.2
2017-02-16T00:17:35.005Z,94.2
2017-02-16T00:18:37.465Z,94.2
2017-02-16T00:19:39.922Z,94.2
2017-02-16T00:20:42.396Z,94.2
2017-02-16T00:21:44.863Z,94.2
2017-02-16T00:22:47.338Z,94.2
2017-02-16T00:23:49.801Z,94.2
2017-02-16T00:24:52.279Z,94.2
2017-02-16T00:25:54.762Z,94.2
2017-02-16T00:28:00.141Z,94.2
2017-02-16T00:29:02.616Z,94.2
2017-02-16T00:30:05.073Z,94.2
2017-02-16T00:31:07.366Z,94.2
2017-02-16T00:32:10.340Z,94.3
2017-02-16T00:33:12.658Z,94.3
2017-02-16T00:34:14.960Z,94.3
2017-02-16T00:35:17.258Z,94.3
2017-02-16T00:36:20.219Z,94.3
2017-02-16T00:37:22.681Z,94.3
2017-02-16T00:38:25.143Z,94.3
2017-02-16T00:39:27.611Z,94.3
2017-02-16T00:40:30.075Z,94.3
2017-02-16T00:41:32.538Z,94.3
2017-02-16T00:42:35.344Z,94.3
2017-02-16T00:44:40.209Z,94.3
2017-02-16T00:45:42.692Z,94.3
2017-02-16T00:48:50.459Z,94.3
2017-02-16T00:51:57.761Z,94.3
2017-02-16T00:53:00.225Z,94.4
2017-02-16T00:54:02.687Z,94.4
2017-02-16T00:55:05.153Z,94.4
2017-02-16T00:56:07.509Z,94.4
2017-02-16T00:57:10.481Z,94.4
2017-02-16T00:59:15.386Z,94.4
2017-02-16T01:00:17.844Z,94.4
2017-02-16T01:01:20.316Z,94.4
2017-02-16T01:02:23.127Z,94.4
2017-02-16T01:03:25.600Z,94.4
2017-02-16T01:04:28.059Z,94.4
2017-02-16T01:05:30.513Z,94.4
2017-02-16T01:06:32.968Z,94.4
2017-02-16T01:08:37.837Z,94.4
2017-02-16T01:14:53.327Z,94.5
2017-02-16T01:15:55.784Z,94.5
2017-02-16T01:23:13.015Z,94.5
2017-02-16T01:26:20.627Z,94.5
2017-02-16T01:27:23.420Z,94.5
2017-02-16T01:28:25.888Z,94.5
2017-02-16T01:29:28.173Z,94.5
2017-02-16T01:30:30.657Z,94.5
2017-02-16T01:31:33.117Z,94.5
2017-02-16T01:32:35.574Z,94.5
2017-02-16T01:33:38.534Z,94.5
2017-02-16T01:34:41.009Z,94.5
2017-02-16T01:36:45.871Z,94.5
2017-02-16T01:37:48.339Z,94.6
2017-02-16T01:39:53.211Z,94.6
2017-02-16T01:43:00.826Z,94.6
2017-02-16T01:44:03.281Z,94.6
2017-02-16T01:46:08.663Z,94.6
2017-02-16T01:47:10.952Z,94.6
2017-02-16T01:48:13.964Z,94.6
2017-02-16T02:04:53.553Z,94.6
2017-02-16T02:05:56.009Z,94.7
2017-02-16T02:06:58.473Z,94.7
2017-02-16T02:08:00.768Z,94.7
2017-02-16T02:09:03.751Z,94.7
2017-02-16T02:10:06.208Z,94.7
2017-02-16T02:11:08.855Z,94.7
2017-02-16T02:12:11.311Z,94.7
2017-02-16T02:13:13.790Z,94.7
2017-02-16T02:16:21.079Z,94.7
2017-02-16T02:17:23.553Z,94.7
2017-02-16T02:18:26.359Z,94.7
2017-02-16T02:19:28.835Z,94.7
2017-02-16T02:20:31.296Z,94.7
2017-02-16T02:21:33.759Z,94.7
2017-02-16T02:22:36.250Z,94.7
2017-02-16T02:23:38.716Z,94.7
2017-02-16T02:24:41.188Z,94.7
2017-02-16T02:25:43.665Z,94.7
2017-02-16T02:26:46.125Z,94.7
2017-02-16T02:28:51.502Z,94.7
2017-02-16T02:29:53.964Z,94.7
2017-02-16T02:30:56.438Z,94.7
2017-02-16T02:31:58.903Z,94.7
2017-02-16T02:33:01.409Z,94.7
2017-02-16T02:34:03.870Z,94.7
2017-02-16T02:35:06.335Z,94.7
2017-02-16T02:36:08.793Z,94.7
2017-02-16T02:37:11.275Z,94.7
2017-02-16T02:38:13.751Z,94.7
2017-02-16T02:39:17.237Z,94.7
2017-02-16T02:40:19.725Z,94.7
2017-02-16T02:41:21.683Z,94.7
2017-02-16T02:42:24.164Z,94.7
2017-02-16T02:43:26.641Z,94.8
2017-02-16T02:44:29.134Z,94.7
2017-02-16T02:45:31.610Z,94.8
2017-02-16T02:48:38.894Z,94.8
2017-02-16T02:49:41.700Z,94.8
2017-02-16T02:50:44.185Z,94.8
2017-02-16T02:51:46.645Z,94.8
2017-02-16T02:52:49.150Z,94.8
2017-02-16T02:53:51.617Z,94.8
2017-02-16T02:54:54.104Z,94.8
2017-02-16T02:55:56.578Z,94.8
2017-02-16T02:56:59.062Z,94.8
2017-02-16T02:58:01.541Z,94.8
2017-02-16T02:59:04.019Z,94.8
2017-02-16T03:00:07.005Z,94.8
2017-02-16T03:01:09.310Z,94.8
2017-02-16T03:02:11.768Z,94.8
2017-02-16T03:03:14.224Z,94.8
2017-02-16T03:04:16.691Z,94.8
2017-02-16T03:05:19.685Z,94.8
2017-02-16T03:06:21.653Z,94.8
2017-02-16T03:07:24.115Z,94.8
2017-02-16T03:08:26.571Z,94.8
2017-02-16T03:09:29.045Z,94.8
2017-02-16T03:10:32.017Z,94.8
2017-02-16T03:11:34.479Z,94.8
2017-02-16T03:12:36.956Z,94.8
2017-02-16T03:13:39.418Z,94.8
2017-02-16T03:15:44.174Z,94.8
2017-02-16T03:16:46.633Z,94.8
2017-02-16T03:17:49.657Z,94.8
2017-02-16T03:18:51.953Z,94.8
2017-02-16T03:19:54.420Z,94.8
2017-02-16T03:20:56.885Z,94.8
2017-02-16T03:21:59.343Z,94.8
2017-02-16T03:23:01.826Z,94.8
2017-02-16T03:24:04.292Z,94.8
2017-02-16T03:26:09.004Z,94.8
2017-02-16T03:42:49.553Z,94.9
2017-02-16T03:43:52.014Z,94.9
2017-02-16T03:44:54.523Z,94.9
2017-02-16T03:58:27.176Z,94.9
2017-02-16T04:02:37.187Z,94.9
2017-02-16T04:03:39.656Z,94.9
2017-02-16T04:05:44.547Z,94.9
2017-02-16T04:06:47.013Z,94.9
2017-02-16T04:07:49.501Z,94.9
2017-02-16T04:08:52.481Z,94.9
2017-02-16T04:09:54.943Z,94.9
2017-02-16T04:11:59.809Z,94.9
2017-02-16T04:13:02.296Z,94.9
2017-02-16T04:14:04.764Z,94.9
2017-02-16T04:15:07.248Z,94.9
2017-02-16T04:16:09.717Z,94.9
2017-02-16T04:17:12.523Z,94.9
2017-02-16T04:18:14.836Z,94.9
2017-02-16T04:19:17.321Z,94.9
2017-02-16T04:20:19.792Z,94.9
2017-02-16T04:21:22.253Z,94.9
2017-02-16T04:22:25.255Z,94.9
2017-02-16T04:23:27.077Z,94.9
2017-02-16T04:24:30.041Z,94.9
2017-02-16T04:25:32.346Z,94.9
2017-02-16T04:26:34.808Z,94.9
2017-02-16T04:46:22.578Z,94.9
2017-02-16T04:47:25.038Z,94.9
2017-02-16T04:48:27.506Z,94.9
2017-02-16T04:49:29.979Z,94.9
2017-02-16T04:50:32.435Z,94.9
2017-02-16T04:54:42.462Z,94.9
2017-02-16T05:12:25.345Z,95
2017-02-16T05:13:27.815Z,95
2017-02-16T05:14:30.307Z,95
2017-02-16T05:15:32.777Z,95
2017-02-16T05:22:50.008Z,95
2017-02-16T05:24:55.387Z,95
2017-02-16T05:25:57.845Z,95
2017-02-16T05:27:00.303Z,95
2017-02-16T05:28:02.766Z,95
2017-02-16T05:38:27.884Z,95
2017-02-16T05:39:30.348Z,95
2017-02-16T05:40:32.810Z,95
2017-02-16T05:41:35.268Z,95
2017-02-16T05:42:37.739Z,95
2017-02-16T05:43:40.207Z,95
2017-02-16T05:44:42.513Z,95
2017-02-16T05:45:45.501Z,95.1
2017-02-16T05:46:47.981Z,95.1
2017-02-16T05:47:50.441Z,95.1
2017-02-16T05:48:52.916Z,95
2017-02-16T05:49:55.209Z,95
2017-02-16T05:50:58.037Z,95
2017-02-16T05:52:00.486Z,95
2017-02-16T05:53:02.963Z,95
2017-02-16T05:54:05.267Z,95
2017-02-16T05:55:07.730Z,95
2017-02-16T05:56:10.199Z,95
2017-02-16T05:57:13.159Z,95
2017-02-16T05:58:15.637Z,95
2017-02-16T05:59:17.963Z,95
2017-02-16T06:01:22.858Z,95
2017-02-16T06:02:25.330Z,95
2017-02-16T06:03:27.796Z,95
2017-02-16T06:04:30.255Z,95
2017-02-16T06:05:33.219Z,95
2017-02-16T06:06:35.681Z,95
2017-02-16T06:07:38.146Z,95
2017-02-16T06:08:40.626Z,95
2017-02-16T06:10:45.495Z,95
2017-02-16T06:11:47.955Z,95
2017-02-16T06:12:50.754Z,95
2017-02-16T06:13:53.216Z,95
2017-02-16T06:14:55.691Z,95
2017-02-16T06:15:58.176Z,95
2017-02-16T06:17:00.665Z,95
2017-02-16T06:18:03.145Z,95
2017-02-16T06:19:05.639Z,95
2017-02-16T06:20:08.101Z,95
2017-02-16T06:21:10.566Z,95
2017-02-16T06:22:13.076Z,95
2017-02-16T06:24:18.291Z,95
2017-02-16T06:26:23.196Z,95
2017-02-16T06:27:25.681Z,95
2017-02-16T06:28:28.175Z,95
2017-02-16T06:29:31.185Z,95
2017-02-16T06:30:33.163Z,95
2017-02-16T06:31:35.651Z,95
2017-02-16T06:32:37.957Z,95
2017-02-16T06:33:40.433Z,95
2017-02-16T06:34:43.402Z,95
2017-02-16T06:35:45.911Z,95
2017-02-16T06:36:48.202Z,95
2017-02-16T06:37:50.664Z,95
2017-02-16T06:38:53.139Z,95
2017-02-16T06:39:55.608Z,95
2017-02-16T06:40:58.113Z,95
2017-02-16T06:42:00.594Z,95
2017-02-16T06:43:03.062Z,95
2017-02-16T06:44:05.367Z,95
2017-02-16T06:45:08.336Z,95
2017-02-16T06:46:10.829Z,95
2017-02-16T06:47:13.302Z,95
2017-02-16T06:48:15.762Z,95
2017-02-16T06:49:17.902Z,95
2017-02-16T06:50:20.892Z,95
2017-02-16T06:52:25.607Z,95
2017-02-16T06:53:28.415Z,95
2017-02-16T06:54:30.877Z,95
2017-02-16T06:55:33.197Z,95
2017-02-16T06:56:35.498Z,95
2017-02-16T06:57:38.302Z,95
2017-02-16T06:58:40.766Z,95
2017-02-16T06:59:43.239Z,95
2017-02-16T07:00:45.712Z,95
2017-02-16T07:01:48.184Z,95
2017-02-16T07:02:51.152Z,95
2017-02-16T07:03:53.628Z,95
2017-02-16T07:04:56.102Z,95
2017-02-16T07:05:58.570Z,95
2017-02-16T07:07:01.037Z,94.9
2017-02-16T07:08:03.502Z,94.9
2017-02-16T07:09:05.983Z,94.9
2017-02-16T07:10:08.456Z,94.9
2017-02-16T07:11:10.921Z,94.9
2017-02-16T07:12:13.394Z,94.9
2017-02-16T07:13:15.859Z,94.9
2017-02-16T07:14:18.327Z,94.9
2017-02-16T07:15:21.292Z,94.9
2017-02-16T07:16:23.642Z,94.8
2017-02-16T07:17:26.118Z,94.8
2017-02-16T07:18:28.601Z,94.8
2017-02-16T07:19:31.070Z,94.8
2017-02-16T07:20:33.870Z,94.8
2017-02-16T07:21:36.345Z,94.7
2017-02-16T07:22:38.645Z,94.7
2017-02-16T07:23:41.119Z,94.7
2017-02-16T07:24:43.586Z,94.7
2017-02-16T07:25:46.052Z,94.6
2017-02-16T07:26:49.022Z,94.6
2017-02-16T07:27:51.492Z,94.6
2017-02-16T07:28:53.986Z,94.5
2017-02-16T07:29:56.466Z,94.5
2017-02-16T07:32:01.341Z,94.4
2017-02-16T07:33:03.814Z,94.4
2017-02-16T07:34:06.612Z,94.3
2017-02-16T07:35:09.092Z,94.3
2017-02-16T07:36:11.730Z,94.3
2017-02-16T07:37:14.197Z,94.2
2017-02-16T07:38:16.670Z,94.2
2017-02-16T07:39:19.670Z,94.1
2017-02-16T07:40:21.645Z,94.1
2017-02-16T07:41:24.122Z,94
2017-02-16T07:41:54.382Z,94
2017-02-16T07:42:26.653Z,94
2017-02-16T07:43:29.117Z,94
2017-02-16T07:44:31.597Z,93.9
2017-02-16T07:45:34.086Z,93.8
2017-02-16T07:46:36.559Z,93.8
2017-02-16T07:47:39.375Z,93.7
2017-02-16T07:48:41.839Z,93.7
2017-02-16T07:49:44.299Z,93.6
2017-02-16T07:50:46.767Z,93.6
2017-02-16T07:51:49.229Z,93.5
2017-02-16T07:52:52.217Z,93.5
2017-02-16T07:53:55.226Z,93.4
2017-02-16T07:54:57.203Z,93.3
2017-02-16T07:55:59.343Z,93.3
2017-02-16T07:57:02.309Z,93.2
2017-02-16T07:58:04.784Z,93.1
2017-02-16T07:59:07.074Z,93.1
2017-02-16T08:00:09.546Z,93
2017-02-16T08:01:12.049Z,93
2017-02-16T08:02:15.010Z,92.9
2017-02-16T08:04:19.905Z,92.8
2017-02-16T08:05:22.379Z,92.7
2017-02-16T08:06:24.842Z,92.6
2017-02-16T08:07:27.310Z,92.6
2017-02-16T08:08:29.781Z,92.5
2017-02-16T08:09:32.754Z,92.4
2017-02-16T08:10:35.749Z,92.4
2017-02-16T08:11:37.743Z,92.3
2017-02-16T08:12:40.218Z,92.2
2017-02-16T08:13:42.691Z,92.1
2017-02-16T08:14:45.709Z,92.1
2017-02-16T08:15:47.680Z,92
2017-02-16T08:16:50.146Z,91.9
2017-02-16T08:17:53.650Z,91.8
2017-02-16T08:18:55.637Z,91.7
2017-02-16T08:19:58.107Z,91.6
2017-02-16T08:21:00.576Z,91.5
2017-02-16T08:22:03.039Z,91.4
2017-02-16T08:23:05.500Z,91.4
2017-02-16T08:24:08.320Z,91.3
2017-02-16T08:25:10.829Z,91.2
2017-02-16T08:26:13.817Z,91.1
2017-02-16T08:27:15.608Z,91
2017-02-16T08:28:18.576Z,90.9
2017-02-16T08:29:21.044Z,90.9
2017-02-16T08:30:23.511Z,90.8
2017-02-16T08:31:26.514Z,90.8
2017-02-16T08:32:28.479Z,90.7
2017-02-16T08:33:30.940Z,90.7
2017-02-16T08:34:33.907Z,90.6
2017-02-16T08:35:36.375Z,90.6
2017-02-16T08:36:38.893Z,90.6
2017-02-16T08:37:41.887Z,90.5
2017-02-16T08:38:43.852Z,90.5
2017-02-16T08:39:46.314Z,90.5
2017-02-16T08:40:49.678Z,90.5
2017-02-16T08:41:51.642Z,90.5
2017-02-16T08:42:54.641Z,90.5
2017-02-16T08:43:56.603Z,90.5
2017-02-16T08:44:59.064Z,90.5
2017-02-16T08:46:01.540Z,90.5
2017-02-16T08:48:06.758Z,90.6
2017-02-16T08:49:09.234Z,90.6
2017-02-16T08:50:12.029Z,90.6
2017-02-16T08:51:14.326Z,90.6
2017-02-16T08:52:17.287Z,90.6
2017-02-16T08:53:19.751Z,90.6
2017-02-16T08:54:22.246Z,90.6
2017-02-16T08:55:24.718Z,90.7
2017-02-16T08:56:27.201Z,90.7
2017-02-16T08:57:29.672Z,90.7
2017-02-16T08:58:32.647Z,90.7
2017-02-16T08:59:35.153Z,90.7
2017-02-16T09:00:37.624Z,90.8
2017-02-16T09:01:40.110Z,90.8
2017-02-16T09:02:42.574Z,90.8
2017-02-16T09:03:44.873Z,90.9
2017-02-16T09:04:47.849Z,90.9
2017-02-16T09:05:50.312Z,90.9
2017-02-16T09:06:52.789Z,90.9
2017-02-16T09:07:55.264Z,90.9
2017-02-16T09:08:58.247Z,91
2017-02-16T09:10:00.547Z,91
2017-02-16T09:11:03.036Z,91
2017-02-16T09:12:05.335Z,91.1
2017-02-16T09:13:08.131Z,91.1
2017-02-16T09:14:10.620Z,91.1
2017-02-16T09:15:14.126Z,91.2
2017-02-16T09:16:16.099Z,91.2
2017-02-16T09:17:18.593Z,91.2
2017-02-16T09:18:21.067Z,91.2
2017-02-16T09:19:23.535Z,91.3
2017-02-16T09:20:26.008Z,91.3
2017-02-16T09:21:28.476Z,91.3
2017-02-16T09:22:31.465Z,91.4
2017-02-16T09:23:33.943Z,91.4
2017-02-16T09:24:36.416Z,91.4
2017-02-16T09:25:38.880Z,91.5
2017-02-16T09:26:41.372Z,91.5
2017-02-16T09:27:44.180Z,91.5
2017-02-16T09:28:46.654Z,91.5
2017-02-16T09:29:49.130Z,91.5
2017-02-16T09:30:51.600Z,91.5
2017-02-16T09:31:54.084Z,91.5
2017-02-16T09:32:56.893Z,91.5
2017-02-16T09:33:59.372Z,91.5
2017-02-16T09:35:01.851Z,91.5
2017-02-16T09:36:04.670Z,91.5
2017-02-16T09:37:07.166Z,91.6
2017-02-16T09:38:09.293Z,91.6
2017-02-16T09:39:12.259Z,91.6
2017-02-16T09:40:14.887Z,91.6
2017-02-16T09:41:17.407Z,91.6
2017-02-16T09:42:20.418Z,91.6
2017-02-16T09:43:22.417Z,91.6
2017-02-16T09:44:24.891Z,91.6
2017-02-16T09:45:27.367Z,91.6
2017-02-16T09:46:30.382Z,91.5
2017-02-16T09:47:32.871Z,91.6
2017-02-16T09:49:38.282Z,91.6
2017-02-16T09:50:40.244Z,91.5
2017-02-16T09:51:43.207Z,91.6
2017-02-16T09:52:45.679Z,91.6
2017-02-16T09:53:48.701Z,91.6
2017-02-16T09:54:50.678Z,91.6
2017-02-16T09:55:53.171Z,91.6
2017-02-16T09:56:55.636Z,91.6
2017-02-16T09:57:57.931Z,91.6
2017-02-16T09:59:00.751Z,91.6
2017-02-16T10:00:03.232Z,91.6
2017-02-16T10:01:06.048Z,91.6
2017-02-16T10:02:08.523Z,91.6
2017-02-16T10:03:11.231Z,91.6
2017-02-16T10:04:13.693Z,91.5
2017-02-16T10:06:18.903Z,91.5
2017-02-16T10:07:21.386Z,91.5
2017-02-16T10:08:24.191Z,91.5
2017-02-16T10:09:26.653Z,91.6
2017-02-16T10:10:29.141Z,91.6
2017-02-16T10:11:31.450Z,91.6
2017-02-16T10:12:34.417Z,91.6
2017-02-16T10:13:36.900Z,91.6
2017-02-16T10:14:39.902Z,91.6
2017-02-16T10:15:41.875Z,91.6
2017-02-16T10:16:44.337Z,91.6
2017-02-16T10:17:46.815Z,91.6
2017-02-16T10:18:49.634Z,91.6
2017-02-16T10:19:51.785Z,91.6
2017-02-16T10:20:55.281Z,91.6
2017-02-16T10:21:57.241Z,91.6
2017-02-16T10:24:02.630Z,91.6
2017-02-16T10:25:05.102Z,91.6
2017-02-16T10:26:07.570Z,91.5
2017-02-16T10:27:10.367Z,91.5
2017-02-16T10:28:12.842Z,91.6
2017-02-16T10:29:15.327Z,91.5
2017-02-16T10:30:17.789Z,91.5
2017-02-16T10:31:20.535Z,91.4
2017-02-16T10:32:22.997Z,91.4
2017-02-16T10:33:25.458Z,91.4
2017-02-16T10:34:28.470Z,91.5
2017-02-16T10:35:30.441Z,91.5
2017-02-16T10:36:33.424Z,91.4
2017-02-16T10:37:35.886Z,91.4
2017-02-16T10:38:38.359Z,91.4
2017-02-16T10:39:40.817Z,91.4
2017-02-16T10:40:43.288Z,91.3
2017-02-16T10:41:46.264Z,91.3
2017-02-16T10:42:48.744Z,91.3
2017-02-16T10:43:51.213Z,91.3
2017-02-16T10:44:53.685Z,91.3
2017-02-16T10:48:01.468Z,91.3
2017-02-16T10:49:03.947Z,91.3
2017-02-16T10:50:06.657Z,91.3
2017-02-16T10:51:08.966Z,91.3
2017-02-16T10:52:11.940Z,91.3
2017-02-16T10:53:14.573Z,91.3
2017-02-16T10:54:17.047Z,91.4
2017-02-16T10:55:19.519Z,91.4
2017-02-16T10:56:21.998Z,91.4
2017-02-16T10:57:24.467Z,91.3
2017-02-16T10:58:27.431Z,91.4
2017-02-16T10:59:29.931Z,91.4
2017-02-16T11:00:32.446Z,91.4
2017-02-16T11:01:35.445Z,91.3
2017-02-16T11:02:37.413Z,91.2
2017-02-16T11:03:39.887Z,91.2
2017-02-16T11:04:42.862Z,91.1
2017-02-16T11:06:47.624Z,91
2017-02-16T11:07:50.588Z,91
2017-02-16T11:08:53.088Z,91
2017-02-16T11:09:55.567Z,91
2017-02-16T11:10:58.057Z,91
2017-02-16T11:12:00.557Z,91
2017-02-16T11:13:03.024Z,91
2017-02-16T11:14:05.822Z,91.1
2017-02-16T11:16:11.206Z,91
2017-02-16T11:17:13.688Z,91
2017-02-16T11:18:16.150Z,91
2017-02-16T11:19:18.615Z,91.1
2017-02-16T11:20:21.077Z,91.1
2017-02-16T11:21:24.057Z,91.1
2017-02-16T11:22:26.559Z,91.1
2017-02-16T11:23:29.021Z,91
2017-02-16T11:24:31.491Z,91
2017-02-16T11:25:33.957Z,91
2017-02-16T11:26:36.950Z,91
2017-02-16T11:27:39.414Z,90.9
2017-02-16T11:28:41.895Z,90.9
2017-02-16T11:29:44.356Z,90.8
2017-02-16T11:30:46.857Z,90.7
2017-02-16T11:31:49.654Z,90.7
2017-02-16T11:32:52.131Z,90.6
2017-02-16T11:33:54.601Z,90.6
2017-02-16T11:34:57.412Z,90.6
2017-02-16T11:35:59.875Z,90.6
2017-02-16T11:37:02.341Z,90.6
2017-02-16T11:38:05.171Z,90.7
2017-02-16T11:39:07.821Z,90.7
2017-02-16T11:40:10.111Z,90.7
2017-02-16T11:41:13.115Z,90.7
2017-02-16T11:42:15.578Z,90.8
2017-02-16T11:43:18.052Z,90.8
2017-02-16T11:44:20.530Z,90.8
2017-02-16T11:45:23.005Z,90.7
2017-02-16T11:47:28.412Z,90.7
2017-02-16T11:48:30.883Z,90.8
2017-02-16T11:49:33.354Z,90.8
2017-02-16T11:50:36.325Z,90.9
2017-02-16T11:51:38.794Z,90.8
2017-02-16T11:52:41.271Z,90.8
2017-02-16T11:53:43.736Z,90.7
2017-02-16T11:54:46.716Z,90.7
2017-02-16T11:55:49.183Z,90.7
2017-02-16T11:56:51.652Z,90.8
2017-02-16T11:57:54.110Z,90.8
2017-02-16T11:58:56.632Z,90.8
2017-02-16T11:59:59.602Z,90.8
2017-02-16T12:01:02.071Z,90.7
2017-02-16T12:02:04.545Z,90.7
2017-02-16T12:03:07.027Z,90.7
2017-02-16T12:04:09.496Z,90.6
2017-02-16T12:05:12.493Z,90.6
2017-02-16T12:07:17.361Z,90.7
2017-02-16T12:08:19.851Z,90.7
2017-02-16T12:09:22.822Z,90.7
2017-02-16T12:10:25.301Z,90.7
2017-02-16T12:11:27.762Z,90.8
2017-02-16T12:12:30.248Z,90.9
2017-02-16T12:13:33.239Z,90.9
2017-02-16T12:14:35.705Z,90.9
2017-02-16T12:15:38.167Z,90.9
2017-02-16T12:16:40.665Z,90.8
2017-02-16T12:17:43.664Z,90.9
2017-02-16T12:18:46.667Z,90.8
2017-02-16T12:19:48.639Z,90.8
2017-02-16T12:20:51.127Z,90.8
2017-02-16T12:21:53.589Z,90.9
2017-02-16T12:22:56.555Z,90.9
2017-02-16T12:23:59.058Z,91
2017-02-16T12:25:01.534Z,91
2017-02-16T12:26:04.171Z,91
2017-02-16T12:27:07.017Z,91
2017-02-16T12:28:09.480Z,90.9
2017-02-16T12:29:11.941Z,90.9
2017-02-16T12:30:14.422Z,90.9
2017-02-16T12:31:17.237Z,91
2017-02-16T12:32:19.732Z,91
2017-02-16T12:33:22.199Z,91
2017-02-16T12:34:24.666Z,91
2017-02-16T12:35:27.176Z,91
2017-02-16T12:36:30.175Z,91
2017-02-16T12:37:32.653Z,90.9
2017-02-16T12:38:35.134Z,90.9
2017-02-16T12:39:37.603Z,90.9
2017-02-16T12:40:40.589Z,91
2017-02-16T12:41:43.065Z,91
2017-02-16T12:42:45.193Z,91
2017-02-16T12:43:48.155Z,91
2017-02-16T12:44:50.614Z,91
2017-02-16T12:45:53.067Z,91
2017-02-16T12:46:56.037Z,91
2017-02-16T12:47:58.493Z,91.1
2017-02-16T12:49:00.953Z,91.1
2017-02-16T12:50:03.926Z,91.1
2017-02-16T12:51:06.052Z,91.1
2017-02-16T12:52:09.031Z,91.1
2017-02-16T12:53:11.505Z,91
2017-02-16T12:54:13.828Z,91
2017-02-16T12:55:16.467Z,91
2017-02-16T12:56:19.263Z,91
2017-02-16T12:57:21.728Z,91
2017-02-16T12:58:24.188Z,91
2017-02-16T12:59:27.184Z,91
2017-02-16T13:00:29.651Z,91
2017-02-16T13:01:32.134Z,91.1
2017-02-16T13:02:34.607Z,91.1
2017-02-16T13:03:37.577Z,91
2017-02-16T13:04:40.032Z,91
2017-02-16T13:05:42.502Z,90.9
2017-02-16T13:06:44.972Z,90.9
2017-02-16T13:07:47.966Z,91
2017-02-16T13:08:50.439Z,91
2017-02-16T13:09:52.909Z,91.1
2017-02-16T13:10:55.371Z,91
2017-02-16T13:11:58.363Z,91
2017-02-16T13:13:00.824Z,91
2017-02-16T13:14:03.294Z,90.9
2017-02-16T13:15:05.754Z,90.9
2017-02-16T13:16:08.715Z,90.9
2017-02-16T13:17:11.203Z,90.9
2017-02-16T13:18:14.526Z,90.9
2017-02-16T13:19:16.315Z,90.8
2017-02-16T13:20:18.769Z,90.7
2017-02-16T13:21:21.566Z,90.6
2017-02-16T13:22:24.021Z,90.6
2017-02-16T13:23:26.841Z,90.6
2017-02-16T13:24:29.321Z,90.5
2017-02-16T13:25:31.777Z,90.5
2017-02-16T13:26:34.574Z,90.5
2017-02-16T13:27:37.032Z,90.5
2017-02-16T13:28:39.998Z,90.5
2017-02-16T13:29:42.455Z,90.6
2017-02-16T13:30:44.927Z,90.6
2017-02-16T13:32:50.286Z,90.7
2017-02-16T13:33:52.749Z,90.8
2017-02-16T13:34:55.212Z,90.8
2017-02-16T13:35:58.179Z,90.8
2017-02-16T13:37:00.652Z,90.8
2017-02-16T13:38:02.975Z,90.9
2017-02-16T13:40:08.339Z,90.9
2017-02-16T13:41:10.802Z,90.9
2017-02-16T13:42:13.282Z,90.9
2017-02-16T13:43:16.240Z,90.9
2017-02-16T13:44:18.691Z,90.9
2017-02-16T13:46:24.063Z,91
2017-02-16T13:47:26.692Z,91
2017-02-16T13:48:29.147Z,91.1
2017-02-16T13:49:32.107Z,91.1
2017-02-16T13:50:34.575Z,91.1
2017-02-16T13:51:37.057Z,91.2
2017-02-16T13:52:39.347Z,91.2
2017-02-16T13:53:42.851Z,91.3
2017-02-16T13:54:44.826Z,91.3
2017-02-16T13:55:47.332Z,91.4
2017-02-16T13:56:50.301Z,91.4
2017-02-16T13:57:52.774Z,91.4
2017-02-16T13:58:55.396Z,91.4
2017-02-16T13:59:57.851Z,91.4
2017-02-16T14:01:00.310Z,91.4
2017-02-16T14:02:03.271Z,91.4
2017-02-16T14:03:05.581Z,91.4
2017-02-16T14:04:08.543Z,91.4
2017-02-16T14:06:13.755Z,91.5
2017-02-16T14:07:16.047Z,91.5
2017-02-16T14:08:18.536Z,91.5
2017-02-16T14:09:21.493Z,91.5
2017-02-16T14:10:23.957Z,91.6
2017-02-16T14:11:26.770Z,91.6
2017-02-16T14:12:29.071Z,91.6
2017-02-16T14:13:31.528Z,91.7
2017-02-16T14:14:34.506Z,91.7
2017-02-16T14:15:36.990Z,91.7
2017-02-16T14:16:39.475Z,91.7
2017-02-16T14:17:41.940Z,91.7
2017-02-16T14:18:44.911Z,91.7
2017-02-16T14:19:47.378Z,91.7
2017-02-16T14:20:49.832Z,91.7
2017-02-16T14:21:52.803Z,91.7
2017-02-16T14:22:55.259Z,91.7
2017-02-16T14:23:57.565Z,91.7
2017-02-16T14:25:00.536Z,91.7
2017-02-16T14:26:02.995Z,91.8
2017-02-16T14:27:05.453Z,91.8
2017-02-16T14:28:08.245Z,91.8
2017-02-16T14:29:10.543Z,91.8
2017-02-16T14:30:13.340Z,91.8
2017-02-16T14:31:15.802Z,91.8
2017-02-16T14:32:18.766Z,91.7
2017-02-16T14:33:21.061Z,91.7
2017-02-16T14:34:24.027Z,91.8
2017-02-16T14:35:26.486Z,91.8
2017-02-16T14:36:28.956Z,91.8
2017-02-16T14:37:31.429Z,91.8
2017-02-16T14:38:34.235Z,91.8
2017-02-16T14:39:36.693Z,91.8
2017-02-16T14:40:39.668Z,91.9
2017-02-16T14:41:42.132Z,91.9
2017-02-16T14:42:44.607Z,91.9
2017-02-16T14:43:47.408Z,91.9
2017-02-16T14:44:49.865Z,91.9
2017-02-16T14:45:52.667Z,91.8
2017-02-16T14:46:54.960Z,91.8
2017-02-16T14:47:57.774Z,91.8
2017-02-16T14:49:00.237Z,91.8
2017-02-16T14:50:02.712Z,91.8
2017-02-16T14:51:05.517Z,91.8
2017-02-16T14:52:07.813Z,91.9
2017-02-16T14:53:11.139Z,91.9
2017-02-16T14:54:13.126Z,91.9
2017-02-16T14:55:15.918Z,91.9
2017-02-16T14:56:18.386Z,91.9
2017-02-16T14:57:21.356Z,91.9
2017-02-16T14:58:23.820Z,92
2017-02-16T14:59:26.275Z,92
2017-02-16T15:00:28.726Z,92
2017-02-16T15:01:32.218Z,92.1
2017-02-16T15:02:34.208Z,92.1
2017-02-16T15:03:36.673Z,92.1
2017-02-16T15:04:39.646Z,92.1
2017-02-16T15:05:42.111Z,92.1
2017-02-16T15:06:44.578Z,92.1
2017-02-16T15:07:47.048Z,92.2
2017-02-16T15:08:49.869Z,92.2
2017-02-16T15:09:52.328Z,92.2
2017-02-16T15:10:54.801Z,92.2
2017-02-16T15:11:57.765Z,92.2
2017-02-16T15:13:00.220Z,92.2
2017-02-16T15:14:02.679Z,92.2
2017-02-16T15:16:08.046Z,92.2
2017-02-16T15:17:10.548Z,92.3
2017-02-16T15:18:13.031Z,92.3
2017-02-16T15:19:15.856Z,92.3
2017-02-16T15:20:18.677Z,92.3
2017-02-16T15:21:21.130Z,92.3
2017-02-16T15:22:23.420Z,92.3
2017-02-16T15:23:26.380Z,92.4
2017-02-16T15:24:28.670Z,92.4
2017-02-16T15:25:31.644Z,92.4
2017-02-16T15:26:34.102Z,92.4
2017-02-16T15:27:36.567Z,92.4
2017-02-16T15:28:39.529Z,92.4
2017-02-16T15:29:41.990Z,92.4
2017-02-16T15:30:44.463Z,92.4
2017-02-16T15:31:47.094Z,92.4
2017-02-16T15:32:49.551Z,92.4
2017-02-16T15:33:52.507Z,92.4
2017-02-16T15:34:54.982Z,92.5
2017-02-16T15:35:57.438Z,92.5
2017-02-16T15:37:00.255Z,92.5
2017-02-16T15:39:05.115Z,92.5
2017-02-16T15:40:08.085Z,92.5
2017-02-16T15:41:10.708Z,92.6
2017-02-16T15:42:13.168Z,92.6
2017-02-16T15:43:15.621Z,92.6
2017-02-16T15:44:18.580Z,92.6
2017-02-16T15:45:21.062Z,92.6
2017-02-16T15:46:23.360Z,92.6
2017-02-16T15:47:26.345Z,92.7
2017-02-16T15:48:28.646Z,92.7
2017-02-16T15:49:31.625Z,92.7
2017-02-16T15:50:33.915Z,92.7
2017-02-16T15:51:36.386Z,92.7
2017-02-16T15:52:39.875Z,92.7
2017-02-16T15:53:41.857Z,92.8
2017-02-16T15:54:44.312Z,92.8
2017-02-16T15:55:46.775Z,92.8
2017-02-16T15:56:49.571Z,92.8
2017-02-16T15:57:52.044Z,92.8
2017-02-16T15:58:55.002Z,92.8
2017-02-16T15:59:57.457Z,92.8
2017-02-16T16:02:02.821Z,92.9
2017-02-16T16:03:05.282Z,92.9
2017-02-16T16:04:07.751Z,92.9
2017-02-16T16:05:10.217Z,92.9
2017-02-16T16:06:13.040Z,93
2017-02-16T16:07:15.512Z,93
2017-02-16T16:08:18.484Z,93
2017-02-16T16:09:20.953Z,93
2017-02-16T16:10:23.252Z,93
2017-02-16T16:11:26.211Z,93
2017-02-16T16:12:28.578Z,93
2017-02-16T16:13:31.073Z,93.1
2017-02-16T16:14:34.064Z,93.1
2017-02-16T16:15:36.530Z,93.1
2017-02-16T16:16:38.998Z,93.1
2017-02-16T16:17:41.455Z,93.1
2017-02-16T16:18:44.426Z,93.1
2017-02-16T16:19:46.903Z,93.2
2017-02-16T16:20:49.382Z,93.2
2017-02-16T16:21:51.839Z,93.2
2017-02-16T16:22:54.645Z,93.2
2017-02-16T16:23:57.460Z,93.2
2017-02-16T16:24:59.922Z,93.2
2017-02-16T16:26:02.904Z,93.3
2017-02-16T16:27:05.388Z,93.3
2017-02-16T16:28:07.848Z,93.3
2017-02-16T16:29:10.337Z,93.3
2017-02-16T16:31:15.541Z,93.3
2017-02-16T16:32:17.855Z,93.3
2017-02-16T16:33:20.821Z,93.3
2017-02-16T16:34:23.307Z,93.3
2017-02-16T16:35:25.763Z,93.3
2017-02-16T16:36:28.723Z,93.4
2017-02-16T16:37:31.182Z,93.4
2017-02-16T16:38:33.485Z,93.4
2017-02-16T16:40:38.874Z,93.4
2017-02-16T16:41:41.340Z,93.4
2017-02-16T16:42:44.307Z,93.4
2017-02-16T16:43:46.605Z,93.5
2017-02-16T16:44:49.065Z,93.5
2017-02-16T16:45:52.028Z,93.5
2017-02-16T16:46:54.493Z,93.5
2017-02-16T16:47:56.951Z,93.5
2017-02-16T16:48:59.922Z,93.5
2017-02-16T16:50:02.391Z,93.6